< < Back
Terminal Aerodrome Forecast


Current Version              Previous Versions:   1  2  3  4  5  6  7  8  9  

Terminal Aerodrome Forecast

134
FTUS42 KFFC 270733 AAA
TAFATL
TAF AMD
KATL 270733Z 2708/2812 33010KT P6SM FEW020 SCT200
     FM271200 35008KT P6SM SCT025 SCT200
     FM271500 35012KT P6SM SCT045 SCT200
     FM280000 34008KT P6SM BKN200=

Latest METAR

128
SAUS70 KWBC 271500 RRC
MTRATL
METAR KATL 271452Z 35005KT 10SM SCT023 SCT250 17/10 A2991 RMK AO2 SLP123
T01670100 51009


USA.gov is the U.S. government's official web portal to all federal, state and local government web resources and services.